Time;durP1;ratioP1;P1;durP2;ratioP2;P2;SDS_P1;SDS_P2;PMS_P1;PMS_P2;Temp;Humidity;BMP_temperature;BMP_pressure;BME280_temperature;BME280_humidity;BME280_pressure;Samples;Min_cycle;Max_cycle;Signal;HPM_P1;HPM_P2
2023/09/16 00:00:52;;;;;;;8.32;4.40;;;;;;;;;;5072517;28;20566;-68
2023/09/16 00:03:20;;;;;;;7.82;4.13;;;;;;;;;;5077301;28;20067;-67
2023/09/16 00:05:49;;;;;;;6.00;3.85;;;;;;;;;;5087198;28;20040;-67
2023/09/16 00:08:17;;;;;;;6.93;4.00;;;;;;;;;;5084955;28;20075;-68
2023/09/16 00:10:46;;;;;;;8.68;4.15;;;;;;;;;;5084446;28;20557;-68
2023/09/16 00:13:15;;;;;;;7.90;4.35;;;;;;;;;;5074503;28;20071;-68
2023/09/16 00:15:48;;;;;;;8.07;4.57;;;;;;;;;;5087807;28;20274;-68
2023/09/16 00:18:17;;;;;;;7.90;4.10;;;;;;;;;;5090621;28;20059;-67
2023/09/16 00:20:48;;;;;;;7.43;4.40;;;;;;;;;;5080526;28;20054;-68
2023/09/16 00:23:16;;;;;;;8.40;4.25;;;;;;;;;;5071590;28;20428;-68
2023/09/16 00:25:45;;;;;;;9.18;4.22;;;;;;;;;;5082950;28;20036;-68
2023/09/16 00:28:13;;;;;;;7.95;3.95;;;;;;;;;;5091402;28;20101;-68
2023/09/16 00:30:44;;;;;;;7.35;4.47;;;;;;;;;;5081952;28;20052;-67
2023/09/16 00:33:13;;;;;;;8.38;4.22;;;;;;;;;;5088541;28;20280;-67
2023/09/16 00:35:42;;;;;;;8.35;4.00;;;;;;;;;;5086810;28;20548;-68
2023/09/16 00:38:10;;;;;;;7.28;4.20;;;;;;;;;;5076010;28;20536;-68
2023/09/16 00:40:38;;;;;;;7.68;4.00;;;;;;;;;;5074496;28;20386;-67
2023/09/16 00:43:08;;;;;;;9.10;4.00;;;;;;;;;;5081793;28;20091;-68
2023/09/16 00:45:36;;;;;;;8.10;4.60;;;;;;;;;;5080214;28;20049;-68
2023/09/16 00:48:06;;;;;;;7.50;4.07;;;;;;;;;;5085275;28;20040;-68
2023/09/16 00:50:35;;;;;;;8.98;4.25;;;;;;;;;;5069182;28;20168;-68
2023/09/16 00:53:03;;;;;;;8.93;4.85;;;;;;;;;;5094029;28;20043;-68
2023/09/16 00:55:32;;;;;;;7.63;4.80;;;;;;;;;;5073974;28;20110;-68
2023/09/16 00:58:01;;;;;;;9.13;5.07;;;;;;;;;;5081083;28;20063;-68
2023/09/16 01:00:29;;;;;;;9.00;4.35;;;;;;;;;;5072507;28;20051;-68
2023/09/16 01:02:59;;;;;;;7.68;3.92;;;;;;;;;;5085959;28;20570;-68
2023/09/16 01:05:29;;;;;;;10.57;4.43;;;;;;;;;;5089253;28;20049;-68
2023/09/16 01:07:58;;;;;;;7.05;4.35;;;;;;;;;;5086955;28;20044;-68
2023/09/16 01:10:26;;;;;;;7.25;4.05;;;;;;;;;;5073865;28;20048;-68
2023/09/16 01:12:55;;;;;;;8.75;4.80;;;;;;;;;;5083146;28;20044;-68
2023/09/16 01:15:27;;;;;;;11.05;4.28;;;;;;;;;;5077899;28;20040;-67
2023/09/16 01:18:01;;;;;;;6.20;4.05;;;;;;;;;;5077712;28;20047;-68
2023/09/16 01:20:31;;;;;;;7.25;4.43;;;;;;;;;;5074436;28;20065;-68
2023/09/16 01:22:59;;;;;;;8.50;4.15;;;;;;;;;;5101290;28;20039;-68
2023/09/16 01:25:29;;;;;;;7.78;4.45;;;;;;;;;;5081113;28;20101;-67
2023/09/16 01:27:58;;;;;;;6.72;4.15;;;;;;;;;;5095126;28;20101;-67
2023/09/16 01:30:28;;;;;;;7.32;4.03;;;;;;;;;;5079184;28;20036;-67
2023/09/16 01:32:59;;;;;;;7.28;4.30;;;;;;;;;;5089802;28;20058;-67
2023/09/16 01:35:31;;;;;;;6.50;3.85;;;;;;;;;;5080723;28;20058;-68
2023/09/16 01:38:00;;;;;;;7.35;4.50;;;;;;;;;;5086480;28;20112;-68
2023/09/16 01:40:30;;;;;;;6.57;3.65;;;;;;;;;;5083808;28;20493;-68
2023/09/16 01:42:59;;;;;;;8.32;3.97;;;;;;;;;;5082749;28;20051;-69
2023/09/16 01:45:28;;;;;;;7.20;4.07;;;;;;;;;;5073454;28;20060;-68
2023/09/16 01:47:57;;;;;;;7.15;4.60;;;;;;;;;;5085916;28;20480;-68
2023/09/16 01:50:25;;;;;;;8.23;4.68;;;;;;;;;;5086267;28;20052;-68
2023/09/16 01:52:54;;;;;;;7.18;4.60;;;;;;;;;;5067632;28;20098;-68
2023/09/16 01:55:22;;;;;;;7.20;4.35;;;;;;;;;;5072315;28;20045;-67
2023/09/16 01:57:52;;;;;;;11.38;4.65;;;;;;;;;;5081043;28;20044;-68
2023/09/16 02:00:20;;;;;;;7.50;4.47;;;;;;;;;;5080192;28;20084;-67
2023/09/16 02:02:49;;;;;;;9.63;4.18;;;;;;;;;;5087127;28;20044;-67
2023/09/16 02:05:17;;;;;;;6.38;4.07;;;;;;;;;;5076928;28;20518;-67
2023/09/16 02:07:46;;;;;;;8.25;3.97;;;;;;;;;;5075014;28;20402;-67
2023/09/16 02:10:15;;;;;;;7.50;4.22;;;;;;;;;;5068820;28;20102;-67
2023/09/16 02:12:43;;;;;;;8.88;4.38;;;;;;;;;;5093261;28;20055;-67
2023/09/16 02:15:13;;;;;;;7.32;3.53;;;;;;;;;;5081734;28;20389;-68
2023/09/16 02:17:41;;;;;;;6.50;3.85;;;;;;;;;;5093237;28;20069;-67
2023/09/16 02:20:11;;;;;;;8.73;4.78;;;;;;;;;;5082657;28;20070;-67
2023/09/16 02:22:39;;;;;;;8.05;4.30;;;;;;;;;;5099005;28;20343;-68
2023/09/16 02:25:08;;;;;;;7.18;4.40;;;;;;;;;;5074473;28;20121;-67
2023/09/16 02:27:36;;;;;;;7.40;4.65;;;;;;;;;;5087379;28;20052;-67
2023/09/16 02:30:05;;;;;;;6.68;4.30;;;;;;;;;;5090463;28;20052;-67
2023/09/16 02:32:36;;;;;;;10.55;4.93;;;;;;;;;;5095016;28;20052;-67
2023/09/16 02:35:04;;;;;;;10.57;5.47;;;;;;;;;;5074045;28;20452;-67
2023/09/16 02:37:32;;;;;;;11.45;4.80;;;;;;;;;;5089652;28;20374;-67
2023/09/16 02:40:02;;;;;;;11.80;5.25;;;;;;;;;;5086690;28;20051;-67
2023/09/16 02:42:30;;;;;;;11.25;5.25;;;;;;;;;;5072014;28;20048;-67
2023/09/16 02:44:59;;;;;;;10.35;4.75;;;;;;;;;;5099346;28;20068;-67
2023/09/16 02:47:27;;;;;;;7.22;4.47;;;;;;;;;;5088523;28;20058;-67
2023/09/16 02:49:57;;;;;;;9.10;4.85;;;;;;;;;;5092475;28;20039;-67
2023/09/16 02:52:26;;;;;;;7.18;4.28;;;;;;;;;;5095281;28;20040;-67
2023/09/16 02:54:54;;;;;;;8.23;4.40;;;;;;;;;;5072457;28;20071;-67
2023/09/16 02:57:22;;;;;;;7.97;4.47;;;;;;;;;;5084090;28;20048;-67
2023/09/16 02:59:52;;;;;;;8.60;4.65;;;;;;;;;;5093261;28;20074;-67
2023/09/16 03:02:20;;;;;;;8.60;4.82;;;;;;;;;;5099625;28;20559;-67
2023/09/16 03:04:50;;;;;;;10.18;4.65;;;;;;;;;;5090720;28;20040;-67
2023/09/16 03:07:20;;;;;;;8.40;4.55;;;;;;;;;;5088100;28;20040;-67
2023/09/16 03:09:48;;;;;;;6.82;4.25;;;;;;;;;;5079350;28;20140;-67
2023/09/16 03:12:16;;;;;;;6.63;4.28;;;;;;;;;;5090058;28;20052;-67
2023/09/16 03:14:48;;;;;;;10.02;4.32;;;;;;;;;;5088653;28;20054;-67
2023/09/16 03:17:16;;;;;;;8.15;4.00;;;;;;;;;;5080227;28;20048;-67
2023/09/16 03:19:45;;;;;;;8.38;4.25;;;;;;;;;;5083132;28;20481;-67
2023/09/16 03:22:13;;;;;;;8.45;4.18;;;;;;;;;;5091612;28;20071;-67
2023/09/16 03:24:43;;;;;;;7.18;4.18;;;;;;;;;;5086680;28;20059;-67
2023/09/16 03:27:12;;;;;;;7.13;4.13;;;;;;;;;;5091121;28;20044;-67
2023/09/16 03:29:40;;;;;;;8.55;4.63;;;;;;;;;;5092056;28;20080;-67
2023/09/16 03:32:08;;;;;;;9.68;4.40;;;;;;;;;;5081976;28;20047;-67
2023/09/16 03:34:37;;;;;;;10.90;4.47;;;;;;;;;;5087663;28;20301;-68
2023/09/16 03:37:05;;;;;;;8.45;4.65;;;;;;;;;;5091924;28;20118;-67
2023/09/16 03:39:34;;;;;;;8.57;4.07;;;;;;;;;;5081846;28;20048;-67
2023/09/16 03:42:03;;;;;;;7.35;4.22;;;;;;;;;;5090543;28;20055;-67
2023/09/16 03:44:34;;;;;;;8.05;4.40;;;;;;;;;;5101724;28;20048;-67
2023/09/16 03:47:03;;;;;;;8.10;4.15;;;;;;;;;;5079544;28;21278;-67
2023/09/16 03:49:32;;;;;;;9.93;5.03;;;;;;;;;;5093711;28;20569;-67
2023/09/16 03:52:00;;;;;;;7.93;4.15;;;;;;;;;;5077680;28;20128;-67
2023/09/16 03:54:28;;;;;;;7.63;4.47;;;;;;;;;;5085340;28;20733;-67
2023/09/16 03:56:57;;;;;;;8.43;4.85;;;;;;;;;;5088951;28;20047;-67
2023/09/16 03:59:26;;;;;;;8.15;4.43;;;;;;;;;;5081976;28;20589;-67
2023/09/16 04:01:55;;;;;;;12.98;5.07;;;;;;;;;;5072874;28;20037;-67
2023/09/16 04:04:23;;;;;;;8.38;4.45;;;;;;;;;;5092091;28;20062;-67
2023/09/16 04:06:52;;;;;;;7.35;4.78;;;;;;;;;;5084284;28;20140;-67
2023/09/16 04:09:20;;;;;;;9.85;4.60;;;;;;;;;;5086968;28;20043;-67
2023/09/16 04:11:49;;;;;;;10.90;4.63;;;;;;;;;;5086944;28;20048;-67
2023/09/16 04:14:20;;;;;;;7.60;4.15;;;;;;;;;;5095463;28;20043;-68
2023/09/16 04:16:49;;;;;;;8.73;4.45;;;;;;;;;;5090640;28;20055;-67
2023/09/16 04:19:18;;;;;;;8.43;4.60;;;;;;;;;;5095285;28;20047;-66
2023/09/16 04:21:47;;;;;;;8.32;4.55;;;;;;;;;;5083145;28;20139;-67
2023/09/16 04:24:16;;;;;;;11.38;4.13;;;;;;;;;;5070515;28;20054;-67
2023/09/16 04:26:44;;;;;;;7.72;4.28;;;;;;;;;;5084919;28;20132;-67
2023/09/16 04:29:13;;;;;;;7.68;4.28;;;;;;;;;;5095370;28;20044;-67
2023/09/16 04:31:44;;;;;;;7.03;4.35;;;;;;;;;;5072007;28;20048;-67
2023/09/16 04:34:14;;;;;;;7.15;4.22;;;;;;;;;;5090925;28;20043;-67
2023/09/16 04:36:43;;;;;;;6.15;3.75;;;;;;;;;;5085703;28;20133;-67
2023/09/16 04:39:11;;;;;;;6.50;3.75;;;;;;;;;;5084517;28;20418;-67
2023/09/16 04:41:39;;;;;;;6.88;4.07;;;;;;;;;;5051700;28;20481;-67
2023/09/16 04:44:08;;;;;;;7.03;3.88;;;;;;;;;;5053754;28;20080;-67
2023/09/16 04:46:36;;;;;;;10.43;4.55;;;;;;;;;;5057896;28;21054;-67
2023/09/16 04:49:05;;;;;;;8.07;4.13;;;;;;;;;;5051498;28;20045;-67
2023/09/16 04:51:35;;;;;;;8.60;4.68;;;;;;;;;;5058263;28;20552;-67
2023/09/16 04:54:04;;;;;;;7.50;4.28;;;;;;;;;;5054208;28;20053;-67
2023/09/16 04:56:33;;;;;;;8.43;4.88;;;;;;;;;;5052966;28;20059;-67
2023/09/16 04:59:01;;;;;;;9.07;4.18;;;;;;;;;;5060516;28;20123;-67
2023/09/16 05:01:30;;;;;;;9.38;5.07;;;;;;;;;;5052962;28;20060;-67
2023/09/16 05:03:58;;;;;;;8.00;4.15;;;;;;;;;;5057162;28;20045;-67
2023/09/16 05:06:27;;;;;;;10.70;4.55;;;;;;;;;;5056266;28;20139;-67
2023/09/16 05:08:57;;;;;;;10.13;5.20;;;;;;;;;;5058925;28;20658;-67
2023/09/16 05:11:25;;;;;;;9.15;4.57;;;;;;;;;;5054449;28;20079;-67
2023/09/16 05:13:53;;;;;;;8.80;5.38;;;;;;;;;;5059226;28;20476;-67
2023/09/16 05:16:22;;;;;;;8.85;4.80;;;;;;;;;;5052243;28;20094;-67
2023/09/16 05:18:50;;;;;;;11.07;5.35;;;;;;;;;;5057942;28;20045;-67
2023/09/16 05:21:19;;;;;;;8.95;5.05;;;;;;;;;;5050540;28;20040;-67
2023/09/16 05:23:47;;;;;;;7.97;4.65;;;;;;;;;;5052192;28;20154;-67
2023/09/16 05:26:17;;;;;;;11.73;5.68;;;;;;;;;;5046896;28;20502;-67
2023/09/16 05:28:46;;;;;;;8.35;4.28;;;;;;;;;;5047849;28;20044;-67
2023/09/16 05:31:14;;;;;;;8.63;4.60;;;;;;;;;;5042964;28;20144;-65
2023/09/16 05:33:43;;;;;;;8.30;4.65;;;;;;;;;;5053506;28;20083;-67
2023/09/16 05:36:11;;;;;;;10.10;5.03;;;;;;;;;;5054069;28;20063;-67
2023/09/16 05:38:39;;;;;;;14.52;4.88;;;;;;;;;;5052346;28;20102;-67
2023/09/16 05:41:08;;;;;;;9.82;4.97;;;;;;;;;;5060049;28;20045;-67
2023/09/16 05:43:38;;;;;;;9.02;4.85;;;;;;;;;;5054889;28;20140;-67
2023/09/16 05:46:06;;;;;;;9.98;4.97;;;;;;;;;;5053724;28;20648;-67
2023/09/16 05:48:35;;;;;;;8.90;4.82;;;;;;;;;;5053272;28;20416;-67
2023/09/16 05:51:04;;;;;;;6.75;4.35;;;;;;;;;;5054756;28;20040;-67
2023/09/16 05:53:33;;;;;;;11.25;5.22;;;;;;;;;;5064217;28;20072;-67
2023/09/16 05:56:04;;;;;;;12.70;5.20;;;;;;;;;;5057487;28;20076;-67
2023/09/16 05:58:33;;;;;;;9.07;5.05;;;;;;;;;;5059522;28;20131;-67
2023/09/16 06:01:02;;;;;;;9.70;5.10;;;;;;;;;;5051947;28;20076;-67
2023/09/16 06:03:31;;;;;;;11.23;4.57;;;;;;;;;;5051804;28;20048;-67
2023/09/16 06:06:00;;;;;;;11.07;5.28;;;;;;;;;;5058115;28;20080;-67
2023/09/16 06:08:28;;;;;;;6.70;4.25;;;;;;;;;;5054323;28;20052;-67
2023/09/16 06:10:57;;;;;;;11.20;4.80;;;;;;;;;;5063233;28;20505;-67
2023/09/16 06:13:25;;;;;;;7.68;4.88;;;;;;;;;;5060508;28;20459;-67
2023/09/16 06:15:54;;;;;;;8.73;5.03;;;;;;;;;;5065286;28;20118;-67
2023/09/16 06:18:24;;;;;;;8.43;4.82;;;;;;;;;;5059423;28;20041;-67
2023/09/16 06:20:53;;;;;;;10.27;5.07;;;;;;;;;;5054232;28;20559;-67
2023/09/16 06:23:21;;;;;;;9.02;4.63;;;;;;;;;;5066483;28;20173;-67
2023/09/16 06:25:50;;;;;;;9.57;5.13;;;;;;;;;;5055167;28;20041;-67
2023/09/16 06:28:18;;;;;;;7.95;4.78;;;;;;;;;;5053376;28;20041;-67
2023/09/16 06:30:47;;;;;;;11.23;5.65;;;;;;;;;;5050119;28;20829;-67
2023/09/16 06:33:15;;;;;;;10.50;5.07;;;;;;;;;;5063163;28;20053;-67
2023/09/16 06:35:45;;;;;;;9.70;5.55;;;;;;;;;;5054500;28;20421;-67
2023/09/16 06:38:13;;;;;;;15.65;7.05;;;;;;;;;;5057127;28;20076;-67
2023/09/16 06:40:42;;;;;;;14.73;7.63;;;;;;;;;;5067058;28;20045;-67
2023/09/16 06:43:10;;;;;;;16.55;8.43;;;;;;;;;;5076034;28;20496;-67
2023/09/16 06:45:39;;;;;;;18.48;7.65;;;;;;;;;;5085513;28;20044;-66
2023/09/16 06:48:08;;;;;;;12.90;6.88;;;;;;;;;;5075138;28;20048;-67
2023/09/16 06:50:38;;;;;;;14.80;7.55;;;;;;;;;;5080913;28;20048;-67
2023/09/16 06:53:07;;;;;;;13.95;7.82;;;;;;;;;;5082339;28;20336;-67
2023/09/16 06:55:36;;;;;;;13.38;7.00;;;;;;;;;;5087645;28;20162;-67
2023/09/16 06:58:06;;;;;;;13.57;7.30;;;;;;;;;;5094745;28;20101;-66
2023/09/16 07:00:36;;;;;;;15.68;7.32;;;;;;;;;;5088497;28;20070;-67
2023/09/16 07:03:05;;;;;;;14.40;7.93;;;;;;;;;;5088240;28;20135;-67
2023/09/16 07:05:34;;;;;;;15.13;7.85;;;;;;;;;;5077401;28;20440;-67
2023/09/16 07:08:02;;;;;;;14.80;6.65;;;;;;;;;;5094334;28;20067;-67
2023/09/16 07:10:32;;;;;;;12.40;7.20;;;;;;;;;;5084817;28;20703;-67
2023/09/16 07:13:00;;;;;;;10.45;6.40;;;;;;;;;;5083680;28;20067;-67
2023/09/16 07:15:29;;;;;;;14.02;6.85;;;;;;;;;;5090004;28;20083;-67
2023/09/16 07:17:57;;;;;;;17.10;8.15;;;;;;;;;;5096149;28;20519;-67
2023/09/16 07:20:26;;;;;;;12.35;7.15;;;;;;;;;;5077626;28;20064;-67
2023/09/16 07:22:55;;;;;;;13.73;7.10;;;;;;;;;;5084117;28;20052;-67
2023/09/16 07:25:23;;;;;;;12.77;7.07;;;;;;;;;;5090385;28;20052;-67
2023/09/16 07:27:53;;;;;;;11.85;6.20;;;;;;;;;;5092300;28;20108;-67
2023/09/16 07:30:23;;;;;;;15.57;6.45;;;;;;;;;;5093385;28;20043;-67
2023/09/16 07:32:52;;;;;;;12.30;7.22;;;;;;;;;;5095888;28;20128;-67
2023/09/16 07:35:20;;;;;;;10.57;6.30;;;;;;;;;;5086821;28;20568;-67
2023/09/16 07:37:49;;;;;;;11.98;6.20;;;;;;;;;;5091070;28;20493;-67
2023/09/16 07:40:17;;;;;;;12.68;6.22;;;;;;;;;;5076549;28;20056;-67
2023/09/16 07:42:45;;;;;;;15.85;6.53;;;;;;;;;;5092886;28;20048;-67
2023/09/16 07:45:15;;;;;;;12.70;6.70;;;;;;;;;;5081914;28;20715;-67
2023/09/16 07:47:43;;;;;;;11.50;6.38;;;;;;;;;;5074571;28;20141;-67
2023/09/16 07:50:12;;;;;;;13.80;7.38;;;;;;;;;;5072370;28;20056;-67
2023/09/16 07:52:42;;;;;;;9.77;6.35;;;;;;;;;;5094478;28;20441;-67
2023/09/16 07:55:10;;;;;;;11.38;6.88;;;;;;;;;;5077170;28;20249;-67
2023/09/16 07:57:39;;;;;;;12.32;7.13;;;;;;;;;;5090493;28;20051;-67
2023/09/16 08:00:08;;;;;;;15.20;8.02;;;;;;;;;;5079213;28;20064;-67
2023/09/16 08:02:38;;;;;;;16.20;8.35;;;;;;;;;;5097610;28;20089;-67
2023/09/16 08:05:06;;;;;;;14.35;7.05;;;;;;;;;;5088971;28;20048;-67
2023/09/16 08:07:35;;;;;;;14.35;7.30;;;;;;;;;;5084623;28;20100;-67
2023/09/16 08:10:04;;;;;;;12.27;6.75;;;;;;;;;;5077699;28;20131;-67
2023/09/16 08:12:32;;;;;;;13.75;6.88;;;;;;;;;;5078590;28;20148;-67
2023/09/16 08:15:02;;;;;;;12.13;6.85;;;;;;;;;;5071876;28;20239;-67
2023/09/16 08:17:31;;;;;;;13.20;7.43;;;;;;;;;;5093380;28;20048;-67
2023/09/16 08:20:01;;;;;;;12.13;7.05;;;;;;;;;;5096918;28;20047;-67
2023/09/16 08:22:29;;;;;;;13.02;7.15;;;;;;;;;;5089087;28;20051;-68
2023/09/16 08:24:58;;;;;;;13.93;6.32;;;;;;;;;;5092459;28;20331;-67
2023/09/16 08:27:28;;;;;;;11.05;6.65;;;;;;;;;;5078899;28;20300;-67
2023/09/16 08:29:56;;;;;;;12.65;6.55;;;;;;;;;;5093871;28;20153;-66
2023/09/16 08:32:28;;;;;;;10.18;5.80;;;;;;;;;;5083587;28;20102;-66
2023/09/16 08:34:57;;;;;;;12.60;6.78;;;;;;;;;;5065597;28;20056;-67
2023/09/16 08:37:27;;;;;;;10.55;6.35;;;;;;;;;;5086403;28;20051;-67
2023/09/16 08:39:55;;;;;;;12.63;6.88;;;;;;;;;;5072124;28;20047;-67
2023/09/16 08:42:27;;;;;;;11.65;6.38;;;;;;;;;;5086033;28;20481;-67
2023/09/16 08:44:55;;;;;;;11.43;6.22;;;;;;;;;;5095526;28;20511;-67
2023/09/16 08:47:29;;;;;;;12.60;6.28;;;;;;;;;;5094586;28;20547;-67
2023/09/16 08:50:01;;;;;;;9.35;5.72;;;;;;;;;;5082643;27;20056;-68
2023/09/16 08:52:34;;;;;;;10.75;5.93;;;;;;;;;;5098688;28;20555;-67
2023/09/16 08:55:03;;;;;;;9.48;5.50;;;;;;;;;;5091759;28;20056;-67
2023/09/16 08:57:32;;;;;;;9.35;6.00;;;;;;;;;;5079020;28;20070;-67
2023/09/16 09:00:00;;;;;;;10.43;6.20;;;;;;;;;;5093244;28;20490;-67
2023/09/16 09:02:29;;;;;;;9.82;5.38;;;;;;;;;;5072617;28;20047;-67
2023/09/16 09:04:57;;;;;;;11.18;5.75;;;;;;;;;;5078624;28;20051;-68
2023/09/16 09:07:26;;;;;;;10.23;5.47;;;;;;;;;;5073025;28;20415;-67
2023/09/16 09:09:56;;;;;;;12.15;6.55;;;;;;;;;;5088994;28;20039;-67
2023/09/16 09:12:24;;;;;;;11.60;6.45;;;;;;;;;;5102840;28;20140;-68
2023/09/16 09:14:53;;;;;;;10.65;6.00;;;;;;;;;;5088008;28;20480;-67
2023/09/16 09:17:22;;;;;;;9.35;5.18;;;;;;;;;;5073901;28;20102;-67
2023/09/16 09:19:51;;;;;;;11.38;6.63;;;;;;;;;;5082053;28;20070;-67
2023/09/16 09:22:20;;;;;;;9.40;6.03;;;;;;;;;;5091160;28;20048;-69
2023/09/16 09:24:48;;;;;;;11.07;5.82;;;;;;;;;;5081877;28;20048;-67
2023/09/16 09:27:18;;;;;;;7.50;4.80;;;;;;;;;;5093387;28;20052;-67
2023/09/16 09:29:47;;;;;;;8.80;4.78;;;;;;;;;;5071472;28;20117;-67
2023/09/16 09:32:15;;;;;;;11.38;5.38;;;;;;;;;;5075972;28;20072;-67
2023/09/16 09:34:43;;;;;;;8.60;5.25;;;;;;;;;;5102690;28;20452;-67
2023/09/16 09:37:16;;;;;;;8.30;5.32;;;;;;;;;;5087672;28;20094;-67
2023/09/16 09:39:46;;;;;;;11.23;5.50;;;;;;;;;;5093724;28;20047;-67
2023/09/16 09:42:21;;;;;;;10.38;5.55;;;;;;;;;;5093747;28;20044;-68
2023/09/16 09:45:01;;;;;;;8.52;5.25;;;;;;;;;;5080754;28;20557;-67
2023/09/16 09:47:29;;;;;;;12.77;5.53;;;;;;;;;;5094337;28;20048;-67
2023/09/16 09:49:58;;;;;;;9.13;5.63;;;;;;;;;;5088437;28;20050;-67
2023/09/16 09:52:27;;;;;;;9.80;5.30;;;;;;;;;;5105871;28;20593;-67
2023/09/16 09:54:55;;;;;;;8.90;5.20;;;;;;;;;;5076817;28;20051;-68
2023/09/16 09:57:26;;;;;;;9.63;5.47;;;;;;;;;;5081769;28;20052;-67
2023/09/16 09:59:54;;;;;;;10.30;5.68;;;;;;;;;;5087198;28;20068;-67
2023/09/16 10:02:25;;;;;;;7.18;4.55;;;;;;;;;;5088399;28;20051;-67
2023/09/16 10:05:01;;;;;;;8.00;5.25;;;;;;;;;;5071924;28;20048;-66
2023/09/16 10:07:30;;;;;;;9.25;5.07;;;;;;;;;;5096458;28;20515;-67
2023/09/16 10:09:58;;;;;;;6.90;4.63;;;;;;;;;;5086471;28;20088;-68
2023/09/16 10:12:28;;;;;;;8.65;5.60;;;;;;;;;;5086059;28;20134;-66
2023/09/16 10:14:56;;;;;;;8.18;4.97;;;;;;;;;;5091088;28;20148;-68
2023/09/16 10:17:25;;;;;;;6.85;4.10;;;;;;;;;;5090033;28;20485;-68
2023/09/16 10:19:54;;;;;;;7.30;4.93;;;;;;;;;;5090428;28;20526;-67
2023/09/16 10:22:22;;;;;;;9.40;5.25;;;;;;;;;;5100731;28;20416;-67
2023/09/16 10:24:50;;;;;;;6.85;4.55;;;;;;;;;;5074991;28;20513;-68
2023/09/16 10:27:20;;;;;;;7.82;4.05;;;;;;;;;;5079712;28;20412;-68
2023/09/16 10:29:50;;;;;;;6.75;4.32;;;;;;;;;;5076344;28;20083;-68
2023/09/16 10:32:18;;;;;;;6.07;4.43;;;;;;;;;;5077297;28;20047;-67
2023/09/16 10:34:49;;;;;;;5.60;4.22;;;;;;;;;;5074185;28;20386;-68
2023/09/16 10:37:18;;;;;;;5.85;3.80;;;;;;;;;;5074623;28;20079;-68
2023/09/16 10:39:47;;;;;;;6.13;4.30;;;;;;;;;;5098258;28;20040;-68
2023/09/16 10:42:17;;;;;;;7.43;4.70;;;;;;;;;;5108386;28;20450;-69
2023/09/16 10:44:46;;;;;;;7.35;4.25;;;;;;;;;;5100267;28;20048;-68
2023/09/16 10:47:16;;;;;;;5.53;4.15;;;;;;;;;;5085198;28;20445;-68
2023/09/16 10:49:45;;;;;;;6.10;3.95;;;;;;;;;;5088667;28;20102;-68
2023/09/16 10:52:18;;;;;;;6.38;4.65;;;;;;;;;;5081955;28;20043;-68
2023/09/16 10:54:51;;;;;;;6.00;3.95;;;;;;;;;;5087613;28;20136;-68
2023/09/16 10:57:24;;;;;;;7.20;3.95;;;;;;;;;;5078137;28;20086;-67
2023/09/16 10:59:53;;;;;;;6.13;3.67;;;;;;;;;;5096345;28;20040;-68
2023/09/16 11:02:28;;;;;;;6.18;4.30;;;;;;;;;;5082407;28;20070;-68
2023/09/16 11:04:57;;;;;;;7.35;3.85;;;;;;;;;;5098814;28;20413;-69
2023/09/16 11:07:25;;;;;;;5.40;3.92;;;;;;;;;;5097176;28;20401;-68
2023/09/16 11:09:55;;;;;;;9.55;4.05;;;;;;;;;;5094406;27;20070;-69
2023/09/16 11:12:24;;;;;;;6.72;3.40;;;;;;;;;;5082666;28;20071;-68
2023/09/16 11:14:52;;;;;;;4.97;3.55;;;;;;;;;;5072055;28;20053;-68
2023/09/16 11:17:22;;;;;;;7.82;3.80;;;;;;;;;;5084413;28;20071;-69
2023/09/16 11:19:53;;;;;;;6.22;3.75;;;;;;;;;;5098699;28;20052;-68
2023/09/16 11:22:22;;;;;;;5.32;3.60;;;;;;;;;;5081466;28;20052;-67
2023/09/16 11:24:54;;;;;;;5.75;3.38;;;;;;;;;;5079218;28;20048;-68
2023/09/16 11:27:22;;;;;;;5.78;3.63;;;;;;;;;;5097171;28;20048;-69
2023/09/16 11:29:52;;;;;;;6.20;3.75;;;;;;;;;;5081542;28;20114;-67
2023/09/16 11:32:21;;;;;;;4.47;3.50;;;;;;;;;;5106198;28;20043;-68
2023/09/16 11:34:50;;;;;;;4.63;3.50;;;;;;;;;;5110468;28;20097;-68
2023/09/16 11:37:24;;;;;;;5.35;3.72;;;;;;;;;;5103127;28;20105;-69
2023/09/16 11:39:55;;;;;;;4.43;3.40;;;;;;;;;;5087081;28;20048;-69
2023/09/16 11:42:24;;;;;;;4.85;3.47;;;;;;;;;;5087297;28;20492;-68
2023/09/16 11:44:54;;;;;;;7.68;3.70;;;;;;;;;;5092703;28;20055;-68
2023/09/16 11:47:23;;;;;;;4.60;3.30;;;;;;;;;;5070512;28;20090;-68
2023/09/16 11:49:52;;;;;;;7.43;3.67;;;;;;;;;;5097273;28;20050;-68
2023/09/16 11:52:22;;;;;;;4.53;3.10;;;;;;;;;;5110536;28;20052;-69
2023/09/16 11:54:51;;;;;;;4.22;3.45;;;;;;;;;;5093030;28;20456;-71
2023/09/16 11:57:19;;;;;;;6.55;3.67;;;;;;;;;;5103273;28;20040;-68
2023/09/16 11:59:48;;;;;;;6.18;3.60;;;;;;;;;;5093642;28;20080;-69
2023/09/16 12:02:16;;;;;;;6.13;3.63;;;;;;;;;;5094882;28;20492;-69
2023/09/16 12:04:46;;;;;;;3.78;2.83;;;;;;;;;;5077537;28;20590;-69
2023/09/16 12:07:14;;;;;;;7.32;3.65;;;;;;;;;;5097043;28;20109;-69
2023/09/16 12:09:46;;;;;;;5.07;3.70;;;;;;;;;;5089963;28;20055;-69
2023/09/16 12:12:14;;;;;;;6.32;3.67;;;;;;;;;;5110052;28;20047;-68
2023/09/16 12:14:43;;;;;;;5.00;3.03;;;;;;;;;;5103431;28;20039;-69
2023/09/16 12:17:11;;;;;;;5.50;3.67;;;;;;;;;;5083902;28;20079;-68
2023/09/16 12:19:49;;;;;;;7.47;3.40;;;;;;;;;;5078419;28;20486;-69
2023/09/16 12:22:17;;;;;;;3.70;2.95;;;;;;;;;;5080925;28;20439;-67
2023/09/16 12:24:47;;;;;;;4.45;3.15;;;;;;;;;;5101031;28;20657;-67
2023/09/16 12:27:16;;;;;;;4.90;2.97;;;;;;;;;;5075908;28;20481;-67
2023/09/16 12:29:44;;;;;;;4.82;3.17;;;;;;;;;;5093205;28;20077;-68
2023/09/16 12:32:14;;;;;;;3.80;3.17;;;;;;;;;;5079978;28;20120;-67
2023/09/16 12:34:43;;;;;;;5.15;3.53;;;;;;;;;;5109266;28;20100;-67
2023/09/16 12:37:11;;;;;;;9.38;8.40;;;;;;;;;;5090657;28;20047;-67
2023/09/16 12:39:40;;;;;;;5.75;2.92;;;;;;;;;;5087187;28;20050;-67
2023/09/16 12:42:10;;;;;;;34.00;16.05;;;;;;;;;;5092378;28;20043;-68
2023/09/16 12:44:44;;;;;;;8.07;7.38;;;;;;;;;;5069614;28;20508;-67
2023/09/16 12:47:13;;;;;;;3.83;3.42;;;;;;;;;;5093547;28;20052;-67
2023/09/16 12:49:41;;;;;;;3.70;2.20;;;;;;;;;;5086917;28;20131;-68
2023/09/16 12:52:11;;;;;;;9.57;8.80;;;;;;;;;;5083143;28;20055;-67
2023/09/16 12:54:42;;;;;;;6.70;5.30;;;;;;;;;;5079217;28;20449;-68
2023/09/16 12:57:14;;;;;;;2.95;2.40;;;;;;;;;;5100759;28;20072;-70
2023/09/16 12:59:44;;;;;;;3.38;2.97;;;;;;;;;;5083965;28;20554;-69
2023/09/16 13:02:13;;;;;;;3.58;2.90;;;;;;;;;;5080098;28;20484;-70
2023/09/16 13:04:41;;;;;;;2.85;2.53;;;;;;;;;;5073356;28;20045;-67
2023/09/16 13:07:10;;;;;;;3.85;3.15;;;;;;;;;;5101280;28;20517;-68
2023/09/16 13:09:38;;;;;;;3.70;2.75;;;;;;;;;;5082745;28;20659;-67
2023/09/16 13:12:07;;;;;;;4.05;2.88;;;;;;;;;;5078666;28;20084;-68
2023/09/16 13:14:39;;;;;;;3.55;2.55;;;;;;;;;;5082007;28;20044;-67
2023/09/16 13:17:07;;;;;;;3.30;2.65;;;;;;;;;;5080567;28;20101;-67
2023/09/16 13:19:40;;;;;;;2.97;2.40;;;;;;;;;;5082083;28;20553;-69
2023/09/16 13:22:11;;;;;;;3.83;2.60;;;;;;;;;;5067141;28;20045;-67
2023/09/16 13:24:43;;;;;;;3.63;3.25;;;;;;;;;;5094294;28;20151;-67
2023/09/16 13:27:17;;;;;;;26.60;23.60;;;;;;;;;;5089146;28;20528;-70
2023/09/16 13:29:47;;;;;;;4.75;3.35;;;;;;;;;;5069363;28;20163;-68
2023/09/16 13:32:16;;;;;;;3.28;2.53;;;;;;;;;;5071412;28;20052;-67
2023/09/16 13:34:45;;;;;;;11.05;9.93;;;;;;;;;;5085434;28;20056;-67
2023/09/16 13:37:14;;;;;;;5.57;2.95;;;;;;;;;;5075135;28;20472;-68
2023/09/16 13:39:43;;;;;;;3.80;3.30;;;;;;;;;;5080322;28;20043;-68
2023/09/16 13:42:12;;;;;;;4.35;2.90;;;;;;;;;;5068984;28;20562;-68
2023/09/16 13:44:40;;;;;;;3.47;2.92;;;;;;;;;;5068197;28;20052;-69
2023/09/16 13:47:10;;;;;;;3.85;2.75;;;;;;;;;;5091178;28;20050;-68
2023/09/16 13:49:41;;;;;;;4.25;2.83;;;;;;;;;;5075970;28;20059;-68
2023/09/16 13:52:10;;;;;;;7.78;7.07;;;;;;;;;;5085425;28;20069;-69
2023/09/16 13:54:38;;;;;;;5.55;3.58;;;;;;;;;;5078423;28;20048;-68
2023/09/16 13:57:07;;;;;;;5.28;3.35;;;;;;;;;;5095394;28;20925;-68
2023/09/16 13:59:35;;;;;;;4.32;2.90;;;;;;;;;;5092436;28;20111;-68
2023/09/16 14:02:03;;;;;;;4.88;3.10;;;;;;;;;;5078447;28;20060;-69
2023/09/16 14:04:33;;;;;;;6.00;2.90;;;;;;;;;;5086578;28;20070;-69
2023/09/16 14:07:02;;;;;;;3.25;2.63;;;;;;;;;;5088954;28;20044;-69
2023/09/16 14:09:30;;;;;;;4.72;2.40;;;;;;;;;;5078585;28;20137;-68
2023/09/16 14:11:59;;;;;;;3.72;2.55;;;;;;;;;;5078817;28;20080;-68
2023/09/16 14:14:27;;;;;;;6.88;2.72;;;;;;;;;;5084342;28;20143;-68
2023/09/16 14:16:55;;;;;;;4.90;2.70;;;;;;;;;;5102340;28;20128;-68
2023/09/16 14:19:24;;;;;;;4.22;2.95;;;;;;;;;;5073838;28;20058;-68
2023/09/16 14:21:54;;;;;;;3.58;2.50;;;;;;;;;;5096546;28;20048;-69
2023/09/16 14:24:23;;;;;;;4.55;2.40;;;;;;;;;;5075504;28;20044;-68
2023/09/16 14:26:51;;;;;;;3.88;2.70;;;;;;;;;;5102721;28;20047;-68
2023/09/16 14:29:20;;;;;;;3.75;2.20;;;;;;;;;;5081615;28;20463;-68
2023/09/16 14:31:48;;;;;;;3.05;2.53;;;;;;;;;;5088520;28;20088;-70
2023/09/16 14:34:17;;;;;;;4.45;2.30;;;;;;;;;;5101442;28;20637;-68
2023/09/16 14:36:45;;;;;;;4.18;2.50;;;;;;;;;;5094211;28;20056;-69
2023/09/16 14:39:15;;;;;;;2.88;2.15;;;;;;;;;;5094912;28;20129;-71
2023/09/16 14:41:47;;;;;;;3.00;2.15;;;;;;;;;;5085274;28;20476;-68
2023/09/16 14:44:15;;;;;;;2.83;2.05;;;;;;;;;;5092506;28;20052;-68
2023/09/16 14:46:44;;;;;;;2.88;2.33;;;;;;;;;;5104296;28;20493;-68
2023/09/16 14:49:12;;;;;;;2.30;1.90;;;;;;;;;;5086913;28;20072;-68